createdAt,value
2023-01-23T00:01:48.024Z,7.60
2023-01-23T00:04:17.334Z,7.60
2023-01-23T00:06:46.861Z,7.70
2023-01-23T00:09:15.679Z,7.60
2023-01-23T00:11:44.466Z,7.60
2023-01-23T00:14:14.509Z,7.60
2023-01-23T00:16:43.214Z,7.60
2023-01-23T00:19:12.261Z,7.70
2023-01-23T00:21:41.039Z,7.70
2023-01-23T00:24:13.269Z,7.70
2023-01-23T00:26:42.045Z,7.70
2023-01-23T00:29:11.109Z,7.70
2023-01-23T00:31:41.302Z,7.70
2023-01-23T00:34:14.132Z,7.70
2023-01-23T00:36:44.228Z,7.80
2023-01-23T00:39:17.515Z,7.70
2023-01-23T00:41:46.851Z,7.80
2023-01-23T00:44:16.139Z,7.70
2023-01-23T00:46:46.930Z,7.70
2023-01-23T00:49:17.863Z,7.70
2023-01-23T00:51:47.119Z,7.80
2023-01-23T00:54:18.204Z,7.70
2023-01-23T00:56:47.014Z,7.70
2023-01-23T00:59:15.723Z,7.70
2023-01-23T01:01:45.939Z,7.70
2023-01-23T01:04:14.727Z,7.80
2023-01-23T01:06:43.483Z,7.80
2023-01-23T01:09:12.336Z,7.70
2023-01-23T01:11:41.522Z,7.70
2023-01-23T01:14:10.266Z,7.80
2023-01-23T01:16:40.949Z,7.70
2023-01-23T01:19:11.190Z,7.70
2023-01-23T01:21:41.044Z,7.70
2023-01-23T01:24:10.542Z,7.70
2023-01-23T01:26:40.281Z,7.70
2023-01-23T01:29:11.461Z,7.70
2023-01-23T01:31:40.230Z,7.70
2023-01-23T01:34:10.548Z,7.60
2023-01-23T01:36:39.214Z,7.60
2023-01-23T01:39:07.919Z,7.70
2023-01-23T01:41:37.087Z,7.60
2023-01-23T01:44:05.947Z,7.50
2023-01-23T01:46:34.707Z,7.50
2023-01-23T01:49:08.629Z,7.60
2023-01-23T01:51:43.462Z,7.60
2023-01-23T01:54:18.898Z,7.60
2023-01-23T01:56:52.678Z,7.60
2023-01-23T01:59:22.910Z,7.70
2023-01-23T02:01:57.944Z,7.60
2023-01-23T02:04:27.058Z,7.60
2023-01-23T02:06:57.513Z,7.60
2023-01-23T02:09:27.897Z,7.60
2023-01-23T02:11:56.635Z,7.60
2023-01-23T02:14:25.871Z,7.60
2023-01-23T02:16:59.857Z,7.60
2023-01-23T02:19:34.180Z,7.60
2023-01-23T02:22:11.803Z,7.50
2023-01-23T02:24:45.367Z,7.50
2023-01-23T02:27:15.519Z,7.50
2023-01-23T02:29:45.843Z,7.50
2023-01-23T02:32:14.526Z,7.50
2023-01-23T02:34:44.032Z,7.50
2023-01-23T02:37:14.549Z,7.50
2023-01-23T02:39:43.219Z,7.50
2023-01-23T02:42:12.222Z,7.50
2023-01-23T02:44:42.550Z,7.40
2023-01-23T02:47:12.511Z,7.50
2023-01-23T02:49:42.827Z,7.50
2023-01-23T02:52:11.556Z,7.50
2023-01-23T02:54:40.835Z,7.50
2023-01-23T02:57:09.750Z,7.60
2023-01-23T02:59:55.631Z,7.50
2023-01-23T03:02:26.598Z,7.60
2023-01-23T03:04:55.410Z,7.70
2023-01-23T03:07:24.120Z,7.70
2023-01-23T03:09:52.810Z,7.70
2023-01-23T03:12:21.673Z,7.80
2023-01-23T03:14:54.303Z,7.90
2023-01-23T03:17:23.647Z,7.80
2023-01-23T03:19:53.812Z,7.80
2023-01-23T03:22:22.533Z,7.60
2023-01-23T03:24:51.387Z,7.60
2023-01-23T03:27:20.099Z,7.50
2023-01-23T03:30:06.459Z,7.40
2023-01-23T03:32:35.121Z,7.30
2023-01-23T03:35:05.594Z,7.10
2023-01-23T03:37:34.430Z,7.00
2023-01-23T03:40:21.070Z,6.90
2023-01-23T03:42:49.992Z,6.80
2023-01-23T03:45:18.763Z,6.70
2023-01-23T03:47:51.699Z,6.70
2023-01-23T03:50:21.953Z,6.70
2023-01-23T03:52:50.482Z,6.80
2023-01-23T03:55:19.370Z,6.70
2023-01-23T03:57:48.336Z,6.70
2023-01-23T04:00:18.198Z,6.70
2023-01-23T04:02:47.084Z,6.70
2023-01-23T04:05:16.010Z,6.70
2023-01-23T04:07:46.112Z,6.60
2023-01-23T04:10:15.131Z,6.70
2023-01-23T04:12:44.157Z,6.70
2023-01-23T04:15:13.399Z,6.70
2023-01-23T04:17:42.599Z,6.70
2023-01-23T04:20:12.535Z,6.70
2023-01-23T04:22:41.369Z,6.90
2023-01-23T04:25:11.695Z,6.90
2023-01-23T04:27:40.527Z,7.00
2023-01-23T04:30:09.834Z,7.00
2023-01-23T04:32:38.246Z,7.00
2023-01-23T04:35:07.756Z,7.00
2023-01-23T04:37:36.527Z,6.90
2023-01-23T04:40:05.898Z,6.90
2023-01-23T04:42:36.022Z,6.90
2023-01-23T04:45:05.001Z,6.90
2023-01-23T04:47:33.772Z,7.00
2023-01-23T04:50:02.487Z,7.00
2023-01-23T04:52:31.255Z,7.10
2023-01-23T04:55:00.037Z,7.10
2023-01-23T04:57:28.729Z,7.10
2023-01-23T05:00:00.424Z,7.10
2023-01-23T05:02:29.542Z,7.20
2023-01-23T05:04:58.278Z,7.10
2023-01-23T05:07:26.990Z,7.20
2023-01-23T05:09:55.764Z,7.20
2023-01-23T05:12:24.566Z,7.30
2023-01-23T05:14:53.230Z,7.30
2023-01-23T05:17:23.309Z,7.30
2023-01-23T05:19:51.990Z,7.30
2023-01-23T05:22:20.782Z,7.20
2023-01-23T05:24:49.586Z,7.10
2023-01-23T05:27:18.397Z,7.20
2023-01-23T05:29:49.194Z,7.20
2023-01-23T05:32:17.566Z,7.20
2023-01-23T05:34:47.658Z,7.20
2023-01-23T05:37:16.368Z,7.20
2023-01-23T05:39:45.264Z,7.20
2023-01-23T05:42:13.926Z,7.20
2023-01-23T05:44:42.624Z,7.20
2023-01-23T05:47:11.466Z,7.10
2023-01-23T05:49:40.171Z,7.10
2023-01-23T05:52:10.217Z,7.10
2023-01-23T05:54:38.731Z,7.10
2023-01-23T05:57:07.079Z,7.10
2023-01-23T05:59:35.483Z,7.20
2023-01-23T06:02:03.882Z,7.20
2023-01-23T06:04:32.259Z,7.20
2023-01-23T06:07:00.640Z,7.10
2023-01-23T06:09:30.539Z,7.00
2023-01-23T06:11:58.930Z,6.90
2023-01-23T06:14:27.627Z,6.90
2023-01-23T06:16:56.395Z,6.80
2023-01-23T06:19:25.210Z,6.90
2023-01-23T06:21:53.987Z,7.00
2023-01-23T06:24:22.761Z,7.10
2023-01-23T06:26:52.845Z,7.10
2023-01-23T06:29:21.577Z,7.10
2023-01-23T06:31:50.496Z,7.10
2023-01-23T06:34:19.266Z,7.10
2023-01-23T06:36:48.095Z,7.10
2023-01-23T06:39:16.991Z,7.10
2023-01-23T06:41:45.673Z,7.10
2023-01-23T06:44:15.743Z,7.20
2023-01-23T06:46:44.514Z,7.10
2023-01-23T06:49:13.285Z,7.20
2023-01-23T06:51:41.987Z,7.20
2023-01-23T06:54:10.677Z,7.20
2023-01-23T06:56:39.462Z,7.30
2023-01-23T06:59:08.443Z,7.30
2023-01-23T07:01:38.675Z,7.40
2023-01-23T07:04:09.077Z,7.40
2023-01-23T07:06:37.803Z,7.50
2023-01-23T07:09:06.624Z,7.50
2023-01-23T07:11:37.092Z,7.50
2023-01-23T07:14:05.860Z,7.60
2023-01-23T07:16:36.026Z,7.60
2023-01-23T07:19:06.540Z,7.70
2023-01-23T07:21:35.229Z,7.70
2023-01-23T07:24:04.091Z,7.70
2023-01-23T07:26:32.878Z,7.70
2023-01-23T07:29:01.597Z,7.80
2023-01-23T07:31:30.094Z,7.80
2023-01-23T07:33:58.483Z,7.90
2023-01-23T07:36:28.421Z,7.90
2023-01-23T07:38:59.097Z,8.00
2023-01-23T07:41:27.625Z,8.10
2023-01-23T07:43:56.380Z,8.20
2023-01-23T07:46:26.995Z,8.20
2023-01-23T07:48:56.306Z,8.40
2023-01-23T07:51:25.090Z,8.40
2023-01-23T07:53:55.483Z,8.40
2023-01-23T07:56:24.212Z,8.50
2023-01-23T07:58:55.410Z,8.60
2023-01-23T08:01:25.300Z,8.70
2023-01-23T08:03:54.592Z,8.70
2023-01-23T08:06:23.521Z,8.70
2023-01-23T08:08:52.655Z,8.80
2023-01-23T08:11:24.030Z,8.70
2023-01-23T08:13:52.766Z,8.80
2023-01-23T08:16:21.508Z,8.90
2023-01-23T08:18:50.253Z,9.10
2023-01-23T08:21:19.226Z,9.20
2023-01-23T08:23:49.644Z,9.40
2023-01-23T08:26:19.094Z,9.50
2023-01-23T08:28:49.222Z,9.60
2023-01-23T08:31:18.161Z,9.60
2023-01-23T08:33:46.928Z,9.70
2023-01-23T08:36:15.721Z,9.70
2023-01-23T08:38:44.348Z,9.70
2023-01-23T08:41:13.306Z,9.70
2023-01-23T08:43:42.613Z,9.70
2023-01-23T08:46:13.286Z,9.70
2023-01-23T08:48:42.917Z,9.70
2023-01-23T08:51:14.131Z,9.60
2023-01-23T08:53:45.605Z,9.60
2023-01-23T08:56:17.234Z,9.60
2023-01-23T08:58:46.582Z,9.60
2023-01-23T09:01:18.747Z,9.70
2023-01-23T09:03:48.006Z,9.80
2023-01-23T09:06:19.421Z,9.80
2023-01-23T09:08:48.592Z,9.90
2023-01-23T09:11:17.802Z,10.00
2023-01-23T09:13:48.012Z,10.10
2023-01-23T09:16:18.771Z,10.10
2023-01-23T09:18:47.431Z,10.20
2023-01-23T09:21:18.024Z,10.10
2023-01-23T09:23:47.287Z,10.10
2023-01-23T09:26:18.133Z,10.10
2023-01-23T09:28:48.272Z,10.10
2023-01-23T09:31:18.317Z,10.10
2023-01-23T09:33:47.031Z,10.20
2023-01-23T09:36:15.744Z,10.30
2023-01-23T09:38:44.382Z,10.20
2023-01-23T09:41:18.226Z,10.20
2023-01-23T09:43:54.325Z,10.20
2023-01-23T09:46:29.554Z,10.20
2023-01-23T09:49:03.184Z,10.20
2023-01-23T09:51:42.699Z,10.30
2023-01-23T09:54:20.959Z,10.30
2023-01-23T09:56:50.402Z,10.30
2023-01-23T09:59:28.897Z,10.30
2023-01-23T10:01:59.512Z,10.30
2023-01-23T10:04:28.229Z,10.20
2023-01-23T10:07:37.053Z,10.20
2023-01-23T10:10:22.923Z,10.20
2023-01-23T10:13:02.940Z,10.30
2023-01-23T10:15:39.263Z,10.30
2023-01-23T10:18:20.599Z,10.40
2023-01-23T10:20:58.427Z,10.50
2023-01-23T10:23:42.744Z,10.50
2023-01-23T10:26:16.964Z,10.40
2023-01-23T10:28:47.668Z,10.30
2023-01-23T10:31:30.351Z,10.30
2023-01-23T10:34:12.547Z,10.40
2023-01-23T10:36:54.533Z,10.30
2023-01-23T10:39:28.395Z,10.40
2023-01-23T10:42:02.337Z,10.40
2023-01-23T10:44:31.514Z,10.30
2023-01-23T10:47:05.612Z,10.30
2023-01-23T10:49:37.748Z,10.30
2023-01-23T10:52:11.329Z,10.30
2023-01-23T10:54:47.998Z,10.40
2023-01-23T10:57:26.540Z,10.50
2023-01-23T11:00:00.511Z,10.40
2023-01-23T11:02:30.863Z,10.50
2023-01-23T11:05:01.754Z,10.40
2023-01-23T11:07:32.123Z,10.50
2023-01-23T11:10:04.482Z,10.60
2023-01-23T11:12:35.350Z,10.60
2023-01-23T11:15:22.186Z,10.60
2023-01-23T11:17:51.530Z,10.50
2023-01-23T11:20:27.571Z,10.50
2023-01-23T11:23:05.190Z,10.50
2023-01-23T11:25:37.434Z,10.40
2023-01-23T11:28:23.494Z,10.40
2023-01-23T11:31:07.962Z,10.40
2023-01-23T11:33:47.899Z,10.50
2023-01-23T11:36:35.044Z,10.50
2023-01-23T11:39:17.039Z,10.50
2023-01-23T11:41:47.373Z,10.60
2023-01-23T11:44:20.043Z,10.60
2023-01-23T11:47:17.846Z,10.80
2023-01-23T11:50:17.001Z,11.00
2023-01-23T11:52:55.029Z,11.00
2023-01-23T11:55:38.764Z,11.10
2023-01-23T11:58:18.479Z,11.10
2023-01-23T12:00:52.598Z,11.20
2023-01-23T12:03:41.661Z,11.20
2023-01-23T12:06:33.875Z,11.10
2023-01-23T12:09:12.434Z,11.20
2023-01-23T12:11:58.301Z,11.10
2023-01-23T12:14:32.083Z,11.10
2023-01-23T12:17:12.439Z,11.00
2023-01-23T12:20:07.905Z,10.90
2023-01-23T12:22:49.027Z,10.80
2023-01-23T12:25:26.946Z,10.80
2023-01-23T12:28:00.518Z,10.80
2023-01-23T12:30:51.852Z,10.90
2023-01-23T12:33:34.253Z,10.80
2023-01-23T12:36:17.628Z,10.70
2023-01-23T12:38:56.578Z,10.80
2023-01-23T12:41:37.880Z,10.90
2023-01-23T12:44:12.699Z,10.90
2023-01-23T12:46:46.252Z,11.00
2023-01-23T12:49:24.382Z,11.00
2023-01-23T12:51:58.772Z,11.00
2023-01-23T12:54:35.496Z,11.00
2023-01-23T12:57:07.087Z,11.10
2023-01-23T12:59:51.800Z,11.00
2023-01-23T13:02:31.498Z,11.10
2023-01-23T13:05:15.674Z,11.20
2023-01-23T13:07:52.433Z,11.10
2023-01-23T13:11:12.794Z,11.00
2023-01-23T13:13:44.174Z,10.90
2023-01-23T13:16:15.120Z,11.00
2023-01-23T13:19:11.795Z,11.10
2023-01-23T13:22:06.793Z,11.10
2023-01-23T13:25:02.631Z,11.10
2023-01-23T13:27:44.834Z,11.20
2023-01-23T13:30:42.558Z,11.20
2023-01-23T13:33:55.314Z,11.10
2023-01-23T13:36:36.595Z,11.10
2023-01-23T13:39:30.087Z,11.10
2023-01-23T13:42:35.512Z,11.20
2023-01-23T13:45:30.271Z,11.10
2023-01-23T14:21:47.552Z,11.10
2023-01-23T14:24:24.347Z,11.10
2023-01-23T14:27:02.460Z,11.20
2023-01-23T14:29:33.579Z,11.20
2023-01-23T14:32:03.831Z,11.30
2023-01-23T14:34:41.015Z,11.30
2023-01-23T14:37:12.930Z,11.20
2023-01-23T14:39:53.090Z,11.10
2023-01-23T14:42:26.682Z,11.10
2023-01-23T14:44:56.738Z,11.00
2023-01-23T14:47:34.044Z,10.90
2023-01-23T14:50:04.605Z,10.90
2023-01-23T14:52:34.085Z,10.90
2023-01-23T14:55:07.837Z,10.90
2023-01-23T14:57:37.744Z,10.90
2023-01-23T15:00:08.183Z,10.80
2023-01-23T15:02:38.398Z,10.70
2023-01-23T15:05:17.709Z,10.70
2023-01-23T15:07:47.856Z,10.80
2023-01-23T15:10:19.733Z,10.70
2023-01-23T15:12:51.348Z,10.70
2023-01-23T15:15:22.936Z,10.80
2023-01-23T15:17:54.490Z,10.80
2023-01-23T15:20:31.886Z,10.80
2023-01-23T15:23:22.136Z,10.70
2023-01-23T15:26:00.860Z,10.80
2023-01-23T15:28:39.655Z,10.70
2023-01-23T15:31:29.321Z,10.70
2023-01-23T15:34:18.940Z,10.80
2023-01-23T15:36:49.463Z,10.70
2023-01-23T15:39:22.085Z,10.60
2023-01-23T15:41:53.046Z,10.50
2023-01-23T15:44:25.168Z,10.40
2023-01-23T15:46:55.294Z,10.40
2023-01-23T15:49:26.490Z,10.40
2023-01-23T15:51:59.155Z,10.30
2023-01-23T15:54:34.002Z,10.40
2023-01-23T15:57:08.406Z,10.40
2023-01-23T15:59:38.494Z,10.40
2023-01-23T16:02:12.895Z,10.40
2023-01-23T16:04:48.606Z,10.40
2023-01-23T16:07:25.061Z,10.30
2023-01-23T16:09:55.306Z,10.50
2023-01-23T16:12:28.550Z,10.50
2023-01-23T16:14:57.644Z,10.30
2023-01-23T16:17:26.459Z,10.30
2023-01-23T16:19:56.600Z,10.30
2023-01-23T16:22:29.514Z,10.20
2023-01-23T16:24:59.491Z,10.10
2023-01-23T16:27:28.309Z,10.10
2023-01-23T16:29:57.482Z,10.10
2023-01-23T16:32:26.383Z,10.00
2023-01-23T16:34:56.595Z,10.00
2023-01-23T16:37:25.887Z,9.90
2023-01-23T16:39:54.579Z,9.90
2023-01-23T16:42:25.112Z,9.90
2023-01-23T16:44:53.845Z,9.90
2023-01-23T16:47:22.492Z,10.00
2023-01-23T16:49:53.216Z,9.80
2023-01-23T16:52:27.110Z,9.70
2023-01-23T16:54:56.506Z,9.70
2023-01-23T16:57:25.878Z,9.60
2023-01-23T16:59:56.575Z,9.60
2023-01-23T17:02:30.066Z,9.40
2023-01-23T17:04:58.912Z,9.40
2023-01-23T17:07:29.031Z,9.30
2023-01-23T17:09:57.921Z,9.30
2023-01-23T17:12:30.319Z,9.40
2023-01-23T17:14:59.468Z,9.50
2023-01-23T17:17:31.621Z,9.50
2023-01-23T17:20:01.846Z,9.50
2023-01-23T17:22:38.300Z,9.40
2023-01-23T17:25:14.035Z,9.30
2023-01-23T17:27:45.561Z,9.30
2023-01-23T17:30:16.738Z,9.40
2023-01-23T17:32:48.148Z,9.50
2023-01-23T17:35:22.547Z,9.60
2023-01-23T17:37:53.200Z,9.60
2023-01-23T17:40:21.771Z,9.60
2023-01-23T17:42:50.170Z,9.60
2023-01-23T17:45:20.874Z,9.60
2023-01-23T17:47:50.337Z,9.50
2023-01-23T17:50:20.795Z,9.50
2023-01-23T17:52:50.340Z,9.50
2023-01-23T17:55:21.873Z,9.50
2023-01-23T17:57:50.779Z,9.60
2023-01-23T18:00:21.695Z,9.50
2023-01-23T18:02:57.466Z,9.50
2023-01-23T18:05:25.967Z,9.50
2023-01-23T18:07:54.736Z,9.40
2023-01-23T18:10:28.485Z,9.40
2023-01-23T18:13:04.190Z,9.50
2023-01-23T18:15:35.445Z,9.50
2023-01-23T18:18:12.473Z,9.50
2023-01-23T18:20:41.189Z,9.50
2023-01-23T18:23:12.271Z,9.40
2023-01-23T18:25:43.762Z,9.40
2023-01-23T18:28:20.087Z,9.30
2023-01-23T18:30:56.833Z,9.30
2023-01-23T18:33:46.952Z,9.30
2023-01-23T18:36:41.258Z,9.30
2023-01-23T18:39:32.809Z,9.20
2023-01-23T18:42:17.539Z,9.20
2023-01-23T18:44:53.855Z,9.30
2023-01-23T18:47:22.878Z,9.40
2023-01-23T18:49:52.465Z,9.30
2023-01-23T18:52:26.092Z,9.30
2023-01-23T18:55:00.065Z,9.30
2023-01-23T18:57:51.695Z,9.30
2023-01-23T19:00:29.145Z,9.40
2023-01-23T19:03:01.268Z,9.30
2023-01-23T19:05:32.761Z,9.30
2023-01-23T19:08:02.391Z,9.20
2023-01-23T19:10:47.547Z,9.10
2023-01-23T19:13:21.627Z,9.10
2023-01-23T19:15:58.011Z,9.10
2023-01-23T19:18:46.568Z,9.10
2023-01-23T19:21:18.517Z,9.10
2023-01-23T19:23:52.936Z,9.10
2023-01-23T19:26:22.768Z,9.00
2023-01-23T19:28:53.522Z,9.00
2023-01-23T19:31:24.673Z,9.00
2023-01-23T19:33:53.980Z,8.90
2023-01-23T19:36:23.942Z,8.90
2023-01-23T19:39:00.502Z,8.80
2023-01-23T19:41:38.874Z,8.80
2023-01-23T19:44:12.075Z,8.70
2023-01-23T19:46:40.959Z,8.70
2023-01-23T19:49:09.653Z,8.60
2023-01-23T19:51:39.458Z,8.60
2023-01-23T19:54:10.855Z,8.60
2023-01-23T19:56:40.039Z,8.60
2023-01-23T19:59:09.983Z,8.60
2023-01-23T20:01:40.395Z,8.50
2023-01-23T20:04:13.038Z,8.50
2023-01-23T20:06:41.711Z,8.50
2023-01-23T20:09:11.114Z,8.50
2023-01-23T20:11:39.542Z,8.50
2023-01-23T20:14:09.433Z,8.40
2023-01-23T20:16:40.414Z,8.40
2023-01-23T20:19:08.991Z,8.40
2023-01-23T20:21:37.379Z,8.30
2023-01-23T20:24:07.402Z,8.30
2023-01-23T20:26:37.044Z,8.30
2023-01-23T20:29:05.765Z,8.40
2023-01-23T20:31:36.188Z,8.40
2023-01-23T20:34:04.884Z,8.40
2023-01-23T20:36:33.574Z,8.40
2023-01-23T20:39:02.301Z,8.40
2023-01-23T20:41:31.070Z,8.30
2023-01-23T20:44:00.897Z,8.30
2023-01-23T20:46:29.761Z,8.20
2023-01-23T20:49:01.627Z,8.30
2023-01-23T20:51:31.345Z,8.30
2023-01-23T20:54:00.067Z,8.30
2023-01-23T20:56:28.801Z,8.40
2023-01-23T20:59:16.229Z,8.30
2023-01-23T21:02:03.415Z,8.30
2023-01-23T21:04:34.965Z,8.40
2023-01-23T21:07:04.796Z,8.40
2023-01-23T21:09:33.540Z,8.40
2023-01-23T21:12:02.259Z,8.40
2023-01-23T21:14:31.259Z,8.30
2023-01-23T21:16:59.960Z,8.30
2023-01-23T21:19:28.928Z,8.30
2023-01-23T21:21:59.060Z,8.30
2023-01-23T21:24:28.529Z,8.30
2023-01-23T21:26:57.244Z,8.30
2023-01-23T21:29:26.001Z,8.30
2023-01-23T21:31:54.690Z,8.30
2023-01-23T21:34:23.322Z,8.20
2023-01-23T21:36:52.239Z,8.10
2023-01-23T21:39:22.280Z,8.10
2023-01-23T21:41:50.963Z,8.10
2023-01-23T21:44:19.667Z,8.00
2023-01-23T21:46:49.224Z,8.00
2023-01-23T21:49:17.858Z,8.00
2023-01-23T21:51:46.614Z,8.00
2023-01-23T21:54:15.365Z,8.00
2023-01-23T21:56:45.378Z,8.00
2023-01-23T21:59:14.170Z,8.00
2023-01-23T22:01:46.469Z,8.00
2023-01-23T22:04:18.203Z,7.90
2023-01-23T22:06:47.799Z,7.90
2023-01-23T22:09:17.805Z,7.90
2023-01-23T22:11:49.377Z,7.80
2023-01-23T22:14:19.287Z,7.80
2023-01-23T22:16:50.726Z,7.70
2023-01-23T22:19:24.924Z,7.80
2023-01-23T22:21:54.628Z,7.80
2023-01-23T22:24:23.330Z,7.80
2023-01-23T22:26:53.539Z,7.80
2023-01-23T22:29:22.944Z,7.80
2023-01-23T22:31:52.443Z,7.80
2023-01-23T22:34:21.228Z,7.80
2023-01-23T22:36:50.092Z,7.70
2023-01-23T22:39:19.819Z,7.50
2023-01-23T22:41:50.173Z,7.40
2023-01-23T22:44:20.363Z,7.40
2023-01-23T22:46:51.524Z,7.30
2023-01-23T22:49:20.553Z,7.30
2023-01-23T22:51:49.563Z,7.20
2023-01-23T22:54:18.426Z,7.10
2023-01-23T22:56:47.140Z,7.20
2023-01-23T22:59:15.838Z,7.20
2023-01-23T23:01:45.970Z,7.10
2023-01-23T23:04:14.653Z,7.20
2023-01-23T23:06:43.403Z,7.20
2023-01-23T23:09:12.186Z,7.20
2023-01-23T23:11:41.316Z,7.20
2023-01-23T23:14:11.591Z,7.10
2023-01-23T23:16:41.006Z,7.10
2023-01-23T23:19:12.186Z,7.10
2023-01-23T23:21:40.925Z,7.20
2023-01-23T23:24:13.138Z,7.20
2023-01-23T23:26:41.955Z,7.20
2023-01-23T23:29:10.719Z,7.20
2023-01-23T23:31:39.616Z,7.20
2023-01-23T23:34:08.532Z,7.20
2023-01-23T23:36:38.621Z,7.20
2023-01-23T23:39:07.331Z,7.20
2023-01-23T23:41:35.934Z,7.20
2023-01-23T23:44:05.052Z,7.30
2023-01-23T23:46:33.768Z,7.40
2023-01-23T23:49:02.433Z,7.40
2023-01-23T23:51:31.135Z,7.40
2023-01-23T23:54:01.245Z,7.40
2023-01-23T23:56:32.163Z,7.40
2023-01-23T23:59:01.039Z,7.50
